ARG1876 SABE-SAWH
Flight info
| Callsign | ARG1876 |
|---|---|
| Flight time | 3h 19m |
| Altitude | 36000 |
| Route | PTA8 GBE UP664 DIL UT662 VUPNI/N0457F380 UT662 ASKAS UT704 DABLI DABLI1Q |
| Aircraft | B738/M-SDE2E3FGHIRWXY/LB1 |
Departure
| Time | 2026-05-08 15:12 |
|---|---|
| Airport | Aeroparque Jorge Newbery (SABE) |
Arrival
| Time | 2026-05-08 18:31 |
|---|---|
| Airport | Ushuaia - Malvinas Argentinas International Airport (SAWH) |
| Time | Latitude | Longitude | Altitude | Speed | Heading |
|---|---|---|---|---|---|
| 2026-05-08 14:42 | -34.55784 | -58.41284 | 31 ft | 0 kts | 40° |
| 2026-05-08 15:00 | -34.55802 | -58.41299 | 32 ft | 4 kts | 18° |
| 2026-05-08 15:00 | -34.55823 | -58.41299 | 31 ft | 4 kts | 314° |
| 2026-05-08 15:00 | -34.55836 | -58.41279 | 29 ft | 1 kts | 303° |
| 2026-05-08 15:01 | -34.55836 | -58.41278 | 29 ft | 0 kts | 303° |
| 2026-05-08 15:03 | -34.55834 | -58.41281 | 29 ft | 3 kts | 303° |
| 2026-05-08 15:03 | -34.55809 | -58.41329 | 28 ft | 9 kts | 302° |
| 2026-05-08 15:03 | -34.55766 | -58.41417 | 27 ft | 15 kts | 300° |
| 2026-05-08 15:04 | -34.55730 | -58.41532 | 28 ft | 15 kts | 254° |
| 2026-05-08 15:04 | -34.55809 | -58.41563 | 28 ft | 14 kts | 136° |
| 2026-05-08 15:04 | -34.55856 | -58.41460 | 28 ft | 14 kts | 117° |
| 2026-05-08 15:04 | -34.55902 | -58.41351 | 27 ft | 16 kts | 117° |
| 2026-05-08 15:05 | -34.55968 | -58.41224 | 26 ft | 20 kts | 128° |
| 2026-05-08 15:05 | -34.56060 | -58.41076 | 28 ft | 23 kts | 125° |
| 2026-05-08 15:05 | -34.56154 | -58.40911 | 30 ft | 23 kts | 105° |
| 2026-05-08 15:05 | -34.56216 | -58.40739 | 29 ft | 22 kts | 124° |
| 2026-05-08 15:06 | -34.56302 | -58.40584 | 28 ft | 22 kts | 123° |
| 2026-05-08 15:06 | -34.56382 | -58.40477 | 27 ft | 11 kts | 139° |
| 2026-05-08 15:06 | -34.56405 | -58.40453 | 26 ft | 0 kts | 139° |
| 2026-05-08 15:09 | -34.56409 | -58.40448 | 26 ft | 3 kts | 139° |
| 2026-05-08 15:10 | -34.56445 | -58.40411 | 26 ft | 11 kts | 139° |
| 2026-05-08 15:10 | -34.56525 | -58.40368 | 29 ft | 15 kts | 206° |
| 2026-05-08 15:10 | -34.56550 | -58.40449 | 25 ft | 7 kts | 292° |
| 2026-05-08 15:10 | -34.56536 | -58.40478 | 25 ft | 2 kts | 303° |
| 2026-05-08 15:11 | -34.56524 | -58.40499 | 24 ft | 4 kts | 304° |
| 2026-05-08 15:11 | -34.56492 | -58.40554 | 27 ft | 27 kts | 304° |
| 2026-05-08 15:11 | -34.56249 | -58.40990 | 26 ft | 96 kts | 304° |
| 2026-05-08 15:11 | -34.55762 | -58.41860 | 65 ft | 147 kts | 301° |
| 2026-05-08 15:12 | -34.55148 | -58.42888 | 682 ft | 150 kts | 300° |
| 2026-05-08 15:12 | -34.54727 | -58.43976 | 1439 ft | 144 kts | 269° |
| 2026-05-08 15:12 | -34.55125 | -58.45067 | 1968 ft | 158 kts | 226° |
| 2026-05-08 15:12 | -34.56210 | -58.45687 | 2237 ft | 189 kts | 198° |
| 2026-05-08 15:13 | -34.57589 | -58.45773 | 2526 ft | 210 kts | 188° |
| 2026-05-08 15:13 | -34.59133 | -58.45806 | 2744 ft | 231 kts | 186° |
| 2026-05-08 15:13 | -34.60762 | -58.45804 | 3342 ft | 237 kts | 185° |
| 2026-05-08 15:13 | -34.62437 | -58.45798 | 3880 ft | 244 kts | 185° |
| 2026-05-08 15:14 | -34.64155 | -58.45793 | 4466 ft | 249 kts | 185° |
| 2026-05-08 15:14 | -34.65905 | -58.45791 | 5080 ft | 253 kts | 186° |
| 2026-05-08 15:14 | -34.67677 | -58.45791 | 5706 ft | 257 kts | 186° |
| 2026-05-08 15:14 | -34.69480 | -58.45797 | 6311 ft | 262 kts | 186° |
| 2026-05-08 15:15 | -34.71307 | -58.45804 | 6964 ft | 263 kts | 186° |
| 2026-05-08 15:15 | -34.73144 | -58.45810 | 7662 ft | 266 kts | 185° |
| 2026-05-08 15:15 | -34.75006 | -58.45818 | 8370 ft | 269 kts | 185° |
| 2026-05-08 15:15 | -34.76879 | -58.45824 | 9171 ft | 270 kts | 185° |
| 2026-05-08 15:16 | -34.78768 | -58.45836 | 9848 ft | 273 kts | 185° |
| 2026-05-08 15:16 | -34.80724 | -58.45852 | 10124 ft | 292 kts | 184° |
| 2026-05-08 15:16 | -34.82828 | -58.45872 | 10300 ft | 313 kts | 184° |
| 2026-05-08 15:16 | -34.85072 | -58.45892 | 10517 ft | 331 kts | 184° |
| 2026-05-08 15:17 | -34.87409 | -58.45914 | 10956 ft | 341 kts | 183° |
| 2026-05-08 15:17 | -34.89789 | -58.45930 | 11602 ft | 343 kts | 182° |
| 2026-05-08 15:17 | -34.92182 | -58.45940 | 12307 ft | 345 kts | 182° |
| 2026-05-08 15:17 | -34.94596 | -58.45948 | 13099 ft | 346 kts | 182° |
| 2026-05-08 15:18 | -34.97013 | -58.45960 | 13815 ft | 349 kts | 183° |
| 2026-05-08 15:18 | -34.99453 | -58.45975 | 14469 ft | 353 kts | 183° |
| 2026-05-08 15:18 | -35.01932 | -58.45993 | 15064 ft | 359 kts | 184° |
| 2026-05-08 15:18 | -35.04418 | -58.46012 | 15675 ft | 365 kts | 184° |
| 2026-05-08 15:19 | -35.06978 | -58.46030 | 16259 ft | 371 kts | 184° |
| 2026-05-08 15:19 | -35.09582 | -58.46050 | 16823 ft | 378 kts | 184° |
| 2026-05-08 15:19 | -35.12234 | -58.46011 | 17353 ft | 384 kts | 180° |
| 2026-05-08 15:19 | -35.14917 | -58.45974 | 17937 ft | 387 kts | 186° |
| 2026-05-08 15:20 | -35.17620 | -58.46094 | 18384 ft | 393 kts | 184° |
| 2026-05-08 15:20 | -35.20357 | -58.46166 | 18970 ft | 393 kts | 186° |
| 2026-05-08 15:20 | -35.23116 | -58.46204 | 19459 ft | 398 kts | 185° |
| 2026-05-08 15:20 | -35.25888 | -58.46231 | 19999 ft | 400 kts | 184° |
| 2026-05-08 15:21 | -35.28688 | -58.46184 | 20468 ft | 405 kts | 182° |
| 2026-05-08 15:21 | -35.31510 | -58.46149 | 21088 ft | 405 kts | 184° |
| 2026-05-08 15:21 | -35.34343 | -58.46173 | 21533 ft | 410 kts | 184° |
| 2026-05-08 15:21 | -35.37199 | -58.46208 | 22061 ft | 411 kts | 184° |
| 2026-05-08 15:22 | -35.40065 | -58.46242 | 22635 ft | 412 kts | 184° |
| 2026-05-08 15:22 | -35.42931 | -58.46270 | 23209 ft | 412 kts | 184° |
| 2026-05-08 15:22 | -35.45811 | -58.46295 | 23570 ft | 416 kts | 184° |
| 2026-05-08 15:22 | -35.48718 | -58.46318 | 23907 ft | 419 kts | 184° |
| 2026-05-08 15:23 | -35.51648 | -58.46339 | 24264 ft | 422 kts | 184° |
| 2026-05-08 15:23 | -35.54589 | -58.46359 | 24636 ft | 424 kts | 184° |
| 2026-05-08 15:23 | -35.57550 | -58.46379 | 24997 ft | 426 kts | 184° |
| 2026-05-08 15:23 | -35.60527 | -58.46399 | 25369 ft | 429 kts | 184° |
| 2026-05-08 15:24 | -35.63511 | -58.46420 | 25766 ft | 430 kts | 184° |
| 2026-05-08 15:24 | -35.66508 | -58.46440 | 26110 ft | 432 kts | 184° |
| 2026-05-08 15:24 | -35.69523 | -58.46462 | 26410 ft | 435 kts | 184° |
| 2026-05-08 15:24 | -35.72555 | -58.46511 | 26713 ft | 436 kts | 187° |
| 2026-05-08 15:25 | -35.75555 | -58.47007 | 27016 ft | 434 kts | 195° |
| 2026-05-08 15:25 | -35.78440 | -58.48063 | 27351 ft | 432 kts | 205° |
| 2026-05-08 15:25 | -35.81203 | -58.49487 | 27805 ft | 430 kts | 206° |
| 2026-05-08 15:25 | -35.83962 | -58.50929 | 28108 ft | 433 kts | 206° |
| 2026-05-08 15:26 | -35.86738 | -58.52377 | 28455 ft | 434 kts | 206° |
| 2026-05-08 15:26 | -35.89524 | -58.53822 | 28751 ft | 435 kts | 206° |
| 2026-05-08 15:26 | -35.92325 | -58.55268 | 29023 ft | 438 kts | 206° |
| 2026-05-08 15:26 | -35.95141 | -58.56714 | 29368 ft | 438 kts | 206° |
| 2026-05-08 15:27 | -35.97947 | -58.58151 | 29816 ft | 436 kts | 206° |
| 2026-05-08 15:27 | -36.00746 | -58.59583 | 30175 ft | 435 kts | 206° |
| 2026-05-08 15:27 | -36.03545 | -58.61016 | 30411 ft | 437 kts | 206° |
| 2026-05-08 15:27 | -36.06360 | -58.62460 | 30648 ft | 439 kts | 206° |
| 2026-05-08 15:28 | -36.09176 | -58.63904 | 30956 ft | 438 kts | 206° |
| 2026-05-08 15:28 | -36.11984 | -58.65345 | 31344 ft | 436 kts | 207° |
| 2026-05-08 15:28 | -36.14791 | -58.66786 | 31609 ft | 437 kts | 207° |
| 2026-05-08 15:28 | -36.17563 | -58.68212 | 31792 ft | 439 kts | 207° |
| 2026-05-08 15:29 | -36.20418 | -58.69682 | 32012 ft | 440 kts | 207° |
| 2026-05-08 15:29 | -36.23208 | -58.71119 | 32297 ft | 440 kts | 207° |
| 2026-05-08 15:29 | -36.26072 | -58.72595 | 32567 ft | 440 kts | 207° |
| 2026-05-08 15:29 | -36.28870 | -58.74038 | 32796 ft | 441 kts | 207° |
| 2026-05-08 15:30 | -36.31697 | -58.75498 | 33035 ft | 442 kts | 207° |
| 2026-05-08 15:30 | -36.34535 | -58.76964 | 33361 ft | 441 kts | 208° |
| 2026-05-08 15:30 | -36.37364 | -58.78425 | 33698 ft | 439 kts | 208° |
| 2026-05-08 15:30 | -36.40185 | -58.79884 | 33883 ft | 440 kts | 208° |
| 2026-05-08 15:31 | -36.43017 | -58.81352 | 34036 ft | 442 kts | 208° |
| 2026-05-08 15:31 | -36.45854 | -58.82822 | 34239 ft | 442 kts | 208° |
| 2026-05-08 15:31 | -36.48690 | -58.84293 | 34472 ft | 441 kts | 207° |
| 2026-05-08 15:31 | -36.51518 | -58.85761 | 34682 ft | 441 kts | 207° |
| 2026-05-08 15:32 | -36.54350 | -58.87232 | 34880 ft | 441 kts | 207° |
| 2026-05-08 15:32 | -36.57181 | -58.88704 | 35057 ft | 441 kts | 207° |
| 2026-05-08 15:32 | -36.60015 | -58.90178 | 35300 ft | 440 kts | 207° |
| 2026-05-08 15:32 | -36.62834 | -58.91646 | 35572 ft | 438 kts | 207° |
| 2026-05-08 15:33 | -36.68486 | -58.94594 | 35666 ft | 443 kts | 207° |
| 2026-05-08 15:33 | -36.74164 | -58.97560 | 35662 ft | 441 kts | 207° |
| 2026-05-08 15:34 | -36.79810 | -59.00511 | 35658 ft | 438 kts | 207° |
| 2026-05-08 15:34 | -36.85423 | -59.03451 | 35674 ft | 436 kts | 207° |
| 2026-05-08 15:35 | -36.91007 | -59.06381 | 35656 ft | 435 kts | 207° |
| 2026-05-08 15:35 | -36.96574 | -59.09308 | 35639 ft | 434 kts | 207° |
| 2026-05-08 15:36 | -37.01196 | -59.11741 | 35620 ft | 433 kts | 207° |
| 2026-05-08 15:36 | -37.07661 | -59.15151 | 35624 ft | 434 kts | 207° |
| 2026-05-08 15:37 | -37.13237 | -59.18096 | 35593 ft | 435 kts | 207° |
| 2026-05-08 15:37 | -37.18821 | -59.21050 | 35583 ft | 436 kts | 207° |
| 2026-05-08 15:38 | -37.24458 | -59.23886 | 35578 ft | 439 kts | 203° |
| 2026-05-08 15:38 | -37.30315 | -59.26164 | 35639 ft | 441 kts | 201° |
| 2026-05-08 15:39 | -37.36203 | -59.28345 | 35641 ft | 442 kts | 201° |
| 2026-05-08 15:39 | -37.42095 | -59.30579 | 35632 ft | 442 kts | 201° |
| 2026-05-08 15:40 | -37.47970 | -59.32849 | 35635 ft | 441 kts | 201° |
| 2026-05-08 15:40 | -37.53838 | -59.35130 | 35622 ft | 441 kts | 201° |
| 2026-05-08 15:41 | -37.59648 | -59.37393 | 35630 ft | 440 kts | 201° |
| 2026-05-08 15:41 | -37.65493 | -59.39673 | 35621 ft | 439 kts | 201° |
| 2026-05-08 15:42 | -37.71323 | -59.41950 | 35634 ft | 437 kts | 201° |
| 2026-05-08 15:42 | -37.77128 | -59.44221 | 35623 ft | 436 kts | 201° |
| 2026-05-08 15:43 | -37.82927 | -59.46494 | 35629 ft | 436 kts | 201° |
| 2026-05-08 15:43 | -37.88717 | -59.48767 | 35615 ft | 435 kts | 201° |
| 2026-05-08 15:44 | -37.94502 | -59.51041 | 35623 ft | 434 kts | 201° |
| 2026-05-08 15:44 | -38.00273 | -59.53314 | 35625 ft | 434 kts | 201° |
| 2026-05-08 15:45 | -38.06037 | -59.55588 | 35619 ft | 434 kts | 201° |
| 2026-05-08 15:45 | -38.11812 | -59.57870 | 35612 ft | 434 kts | 201° |
| 2026-05-08 15:46 | -38.17583 | -59.60154 | 35621 ft | 435 kts | 201° |
| 2026-05-08 15:46 | -38.23356 | -59.62444 | 35612 ft | 435 kts | 200° |
| 2026-05-08 15:47 | -38.29129 | -59.64735 | 35610 ft | 435 kts | 200° |
| 2026-05-08 15:47 | -38.34899 | -59.67031 | 35610 ft | 434 kts | 200° |
| 2026-05-08 15:48 | -38.43505 | -59.70468 | 35603 ft | 433 kts | 200° |
| 2026-05-08 15:49 | -38.49254 | -59.72768 | 35617 ft | 433 kts | 200° |
| 2026-05-08 15:49 | -38.54997 | -59.75069 | 35598 ft | 432 kts | 200° |
| 2026-05-08 15:50 | -38.60724 | -59.77368 | 35894 ft | 430 kts | 200° |
| 2026-05-08 15:50 | -38.65481 | -59.79283 | 36128 ft | 432 kts | 200° |
| 2026-05-08 15:50 | -38.68346 | -59.80436 | 36303 ft | 432 kts | 201° |
| 2026-05-08 15:51 | -38.71219 | -59.81596 | 36433 ft | 434 kts | 200° |
| 2026-05-08 15:51 | -38.76984 | -59.83919 | 36743 ft | 435 kts | 201° |
| 2026-05-08 15:51 | -38.79858 | -59.85077 | 37080 ft | 430 kts | 199° |
| 2026-05-08 15:52 | -38.82708 | -59.86233 | 37304 ft | 428 kts | 201° |
| 2026-05-08 15:52 | -38.85543 | -59.87375 | 37461 ft | 425 kts | 201° |
| 2026-05-08 15:52 | -38.88353 | -59.88507 | 37560 ft | 422 kts | 202° |
| 2026-05-08 15:53 | -38.93964 | -59.90799 | 37602 ft | 425 kts | 202° |
| 2026-05-08 15:53 | -38.99633 | -59.93103 | 37567 ft | 430 kts | 199° |
| 2026-05-08 15:54 | -39.05359 | -59.95423 | 37598 ft | 432 kts | 200° |
| 2026-05-08 15:54 | -39.11100 | -59.97769 | 37604 ft | 431 kts | 201° |
| 2026-05-08 15:55 | -39.16813 | -60.00094 | 37586 ft | 429 kts | 201° |
| 2026-05-08 15:55 | -39.25384 | -60.03603 | 37590 ft | 432 kts | 200° |
| 2026-05-08 15:56 | -39.31153 | -60.05966 | 37595 ft | 435 kts | 201° |
| 2026-05-08 15:56 | -39.36896 | -60.08328 | 37578 ft | 432 kts | 200° |
| 2026-05-08 15:57 | -39.42622 | -60.10677 | 37590 ft | 433 kts | 199° |
| 2026-05-08 15:57 | -39.48395 | -60.13067 | 37579 ft | 436 kts | 199° |
| 2026-05-08 15:58 | -39.54189 | -60.15452 | 37563 ft | 437 kts | 200° |
| 2026-05-08 15:58 | -39.59991 | -60.17848 | 37583 ft | 436 kts | 200° |
| 2026-05-08 15:59 | -39.65770 | -60.20240 | 37554 ft | 436 kts | 200° |
| 2026-05-08 15:59 | -39.71536 | -60.22637 | 37517 ft | 434 kts | 199° |
| 2026-05-08 16:00 | -39.77273 | -60.25017 | 37550 ft | 432 kts | 200° |
| 2026-05-08 16:00 | -39.83029 | -60.27416 | 37570 ft | 438 kts | 199° |
| 2026-05-08 16:01 | -39.88844 | -60.29843 | 37561 ft | 440 kts | 199° |
| 2026-05-08 16:01 | -39.94639 | -60.32265 | 37563 ft | 439 kts | 200° |
| 2026-05-08 16:02 | -40.00423 | -60.34686 | 37543 ft | 434 kts | 199° |
| 2026-05-08 16:02 | -40.06149 | -60.37087 | 37565 ft | 432 kts | 199° |
| 2026-05-08 16:03 | -40.11908 | -60.39508 | 37570 ft | 437 kts | 200° |
| 2026-05-08 16:03 | -40.17695 | -60.41946 | 37564 ft | 437 kts | 200° |
| 2026-05-08 16:04 | -40.23450 | -60.44369 | 37564 ft | 432 kts | 200° |
| 2026-05-08 16:04 | -40.29155 | -60.46785 | 37554 ft | 431 kts | 199° |
| 2026-05-08 16:05 | -40.34882 | -60.49204 | 37562 ft | 434 kts | 199° |
| 2026-05-08 16:05 | -40.40648 | -60.51649 | 37570 ft | 437 kts | 200° |
| 2026-05-08 16:06 | -40.46421 | -60.54103 | 37584 ft | 435 kts | 199° |
| 2026-05-08 16:06 | -40.52162 | -60.56488 | 37569 ft | 429 kts | 198° |
| 2026-05-08 16:07 | -40.57864 | -60.58709 | 37580 ft | 427 kts | 198° |
| 2026-05-08 16:07 | -40.63598 | -60.60928 | 37559 ft | 432 kts | 197° |
| 2026-05-08 16:08 | -40.69391 | -60.63191 | 37585 ft | 435 kts | 197° |
| 2026-05-08 16:08 | -40.75210 | -60.65480 | 37555 ft | 436 kts | 198° |
| 2026-05-08 16:09 | -40.80969 | -60.67748 | 37561 ft | 434 kts | 198° |
| 2026-05-08 16:09 | -40.86729 | -60.70022 | 37551 ft | 432 kts | 198° |
| 2026-05-08 16:10 | -40.92506 | -60.72311 | 37551 ft | 436 kts | 198° |
| 2026-05-08 16:10 | -40.98330 | -60.74621 | 37587 ft | 439 kts | 197° |
| 2026-05-08 16:11 | -41.04190 | -60.76952 | 37567 ft | 438 kts | 197° |
| 2026-05-08 16:11 | -41.09990 | -60.79258 | 37597 ft | 432 kts | 198° |
| 2026-05-08 16:12 | -41.15722 | -60.81542 | 37558 ft | 428 kts | 197° |
| 2026-05-08 16:12 | -41.21448 | -60.83829 | 37625 ft | 431 kts | 197° |
| 2026-05-08 16:13 | -41.27228 | -60.86140 | 37609 ft | 436 kts | 197° |
| 2026-05-08 16:13 | -41.33055 | -60.88476 | 37611 ft | 438 kts | 197° |
| 2026-05-08 16:14 | -41.38887 | -60.90820 | 37619 ft | 437 kts | 197° |
| 2026-05-08 16:14 | -41.44702 | -60.93159 | 37604 ft | 434 kts | 197° |
| 2026-05-08 16:15 | -41.50431 | -60.95469 | 37608 ft | 433 kts | 197° |
| 2026-05-08 16:15 | -41.56222 | -60.97808 | 37612 ft | 437 kts | 197° |
| 2026-05-08 16:16 | -41.62080 | -61.00178 | 37617 ft | 442 kts | 197° |
| 2026-05-08 16:16 | -41.67962 | -61.02563 | 37600 ft | 441 kts | 197° |
| 2026-05-08 16:17 | -41.72866 | -61.04554 | 37619 ft | 437 kts | 197° |
| 2026-05-08 16:17 | -41.79611 | -61.07299 | 37607 ft | 436 kts | 197° |
| 2026-05-08 16:18 | -41.85433 | -61.09671 | 37628 ft | 439 kts | 197° |
| 2026-05-08 16:18 | -41.91297 | -61.12064 | 37619 ft | 443 kts | 197° |
| 2026-05-08 16:19 | -41.97206 | -61.14486 | 37633 ft | 445 kts | 197° |
| 2026-05-08 16:19 | -42.03108 | -61.16906 | 37643 ft | 442 kts | 197° |
| 2026-05-08 16:20 | -42.08949 | -61.19307 | 37629 ft | 437 kts | 197° |
| 2026-05-08 16:20 | -42.14762 | -61.21700 | 37643 ft | 438 kts | 197° |
| 2026-05-08 16:21 | -42.20603 | -61.24109 | 37640 ft | 441 kts | 197° |
| 2026-05-08 16:21 | -42.26501 | -61.26547 | 37644 ft | 446 kts | 197° |
| 2026-05-08 16:22 | -42.32438 | -61.29005 | 37628 ft | 446 kts | 197° |
| 2026-05-08 16:22 | -42.38347 | -61.31457 | 37657 ft | 442 kts | 197° |
| 2026-05-08 16:23 | -42.44183 | -61.33883 | 37633 ft | 437 kts | 197° |
| 2026-05-08 16:23 | -42.49973 | -61.36295 | 37663 ft | 441 kts | 197° |
| 2026-05-08 16:24 | -42.55869 | -61.38755 | 37674 ft | 446 kts | 197° |
| 2026-05-08 16:24 | -42.61814 | -61.41242 | 37674 ft | 447 kts | 197° |
| 2026-05-08 16:25 | -42.67724 | -61.43715 | 37696 ft | 442 kts | 197° |
| 2026-05-08 16:25 | -42.73596 | -61.46185 | 37687 ft | 441 kts | 197° |
| 2026-05-08 16:26 | -42.79465 | -61.48652 | 37692 ft | 442 kts | 197° |
| 2026-05-08 16:26 | -42.85358 | -61.51140 | 37702 ft | 445 kts | 197° |
| 2026-05-08 16:27 | -42.91297 | -61.53646 | 37700 ft | 448 kts | 197° |
| 2026-05-08 16:27 | -42.97239 | -61.56162 | 37710 ft | 445 kts | 197° |
| 2026-05-08 16:28 | -43.03124 | -61.58655 | 37718 ft | 440 kts | 197° |
| 2026-05-08 16:28 | -43.08960 | -61.61131 | 37697 ft | 439 kts | 197° |
| 2026-05-08 16:29 | -43.14818 | -61.63623 | 37736 ft | 442 kts | 197° |
| 2026-05-08 16:29 | -43.20717 | -61.66132 | 37741 ft | 444 kts | 196° |
| 2026-05-08 16:30 | -43.26621 | -61.68654 | 37742 ft | 445 kts | 196° |
| 2026-05-08 16:30 | -43.32507 | -61.71175 | 37734 ft | 442 kts | 197° |
| 2026-05-08 16:31 | -43.38341 | -61.73679 | 37765 ft | 442 kts | 196° |
| 2026-05-08 16:31 | -43.44186 | -61.76184 | 37736 ft | 438 kts | 196° |
| 2026-05-08 16:32 | -43.50015 | -61.78705 | 37769 ft | 440 kts | 196° |
| 2026-05-08 16:32 | -43.55885 | -61.81225 | 37772 ft | 444 kts | 196° |
| 2026-05-08 16:33 | -43.61814 | -61.83785 | 37779 ft | 447 kts | 196° |
| 2026-05-08 16:33 | -43.67732 | -61.86347 | 37779 ft | 444 kts | 197° |
| 2026-05-08 16:34 | -43.73594 | -61.88896 | 37791 ft | 439 kts | 196° |
| 2026-05-08 16:34 | -43.79392 | -61.91408 | 37762 ft | 436 kts | 196° |
| 2026-05-08 16:35 | -43.85191 | -61.93942 | 37795 ft | 440 kts | 196° |
| 2026-05-08 16:35 | -43.91061 | -61.96497 | 37805 ft | 444 kts | 197° |
| 2026-05-08 16:36 | -43.96979 | -61.99091 | 37814 ft | 446 kts | 196° |
| 2026-05-08 16:36 | -44.01849 | -62.01222 | 37801 ft | 438 kts | 196° |
| 2026-05-08 16:37 | -44.07636 | -62.03777 | 37815 ft | 434 kts | 196° |
| 2026-05-08 16:37 | -44.14349 | -62.06726 | 37830 ft | 439 kts | 197° |
| 2026-05-08 16:38 | -44.19243 | -62.08888 | 37846 ft | 441 kts | 196° |
| 2026-05-08 16:38 | -44.25113 | -62.11473 | 37856 ft | 443 kts | 196° |
| 2026-05-08 16:39 | -44.30995 | -62.14073 | 37862 ft | 443 kts | 196° |
| 2026-05-08 16:39 | -44.36807 | -62.16655 | 37852 ft | 440 kts | 196° |
| 2026-05-08 16:40 | -44.42626 | -62.19251 | 37878 ft | 437 kts | 196° |
| 2026-05-08 16:40 | -44.48395 | -62.21818 | 37856 ft | 434 kts | 196° |
| 2026-05-08 16:41 | -44.54181 | -62.24404 | 37889 ft | 438 kts | 197° |
| 2026-05-08 16:42 | -44.62965 | -62.28354 | 37900 ft | 445 kts | 196° |
| 2026-05-08 16:42 | -44.68845 | -62.30985 | 37902 ft | 439 kts | 196° |
| 2026-05-08 16:43 | -44.74647 | -62.33586 | 37911 ft | 437 kts | 196° |
| 2026-05-08 16:43 | -44.80440 | -62.36196 | 37924 ft | 438 kts | 196° |
| 2026-05-08 16:44 | -44.86236 | -62.38808 | 37895 ft | 437 kts | 196° |
| 2026-05-08 16:44 | -44.92011 | -62.41471 | 37928 ft | 436 kts | 196° |
| 2026-05-08 16:45 | -44.97815 | -62.44057 | 37916 ft | 440 kts | 197° |
| 2026-05-08 16:45 | -45.03669 | -62.46725 | 37949 ft | 443 kts | 196° |
| 2026-05-08 16:46 | -45.09512 | -62.49401 | 37919 ft | 440 kts | 195° |
| 2026-05-08 16:46 | -45.15321 | -62.52031 | 37931 ft | 436 kts | 196° |
| 2026-05-08 16:47 | -45.21064 | -62.54667 | 37949 ft | 434 kts | 196° |
| 2026-05-08 16:47 | -45.26843 | -62.57323 | 37960 ft | 438 kts | 197° |
| 2026-05-08 16:48 | -45.32673 | -62.60012 | 37963 ft | 442 kts | 196° |
| 2026-05-08 16:48 | -45.38543 | -62.62718 | 37983 ft | 445 kts | 197° |
| 2026-05-08 16:49 | -45.44416 | -62.65446 | 37976 ft | 439 kts | 196° |
| 2026-05-08 16:49 | -45.50157 | -62.68126 | 37980 ft | 436 kts | 197° |
| 2026-05-08 16:50 | -45.55895 | -62.70853 | 37984 ft | 432 kts | 195° |
| 2026-05-08 16:50 | -45.61618 | -62.73468 | 38001 ft | 432 kts | 196° |
| 2026-05-08 16:51 | -45.67369 | -62.76152 | 38005 ft | 437 kts | 196° |
| 2026-05-08 16:51 | -45.73180 | -62.78858 | 38021 ft | 441 kts | 197° |
| 2026-05-08 16:52 | -45.79025 | -62.81568 | 38000 ft | 441 kts | 196° |
| 2026-05-08 16:52 | -45.84809 | -62.84308 | 37993 ft | 436 kts | 195° |
| 2026-05-08 16:53 | -45.93453 | -62.88366 | 38024 ft | 435 kts | 196° |
| 2026-05-08 16:53 | -45.99177 | -62.91062 | 38009 ft | 431 kts | 196° |
| 2026-05-08 16:54 | -46.04857 | -62.93750 | 38046 ft | 434 kts | 196° |
| 2026-05-08 16:54 | -46.10604 | -62.96489 | 38039 ft | 437 kts | 197° |
| 2026-05-08 16:55 | -46.16413 | -62.99216 | 38058 ft | 442 kts | 197° |
| 2026-05-08 16:55 | -46.22212 | -63.02000 | 38069 ft | 435 kts | 198° |
| 2026-05-08 16:56 | -46.27945 | -63.04700 | 38041 ft | 434 kts | 197° |
| 2026-05-08 16:56 | -46.33621 | -63.07438 | 38056 ft | 426 kts | 196° |
| 2026-05-08 16:57 | -46.39239 | -63.10115 | 38096 ft | 426 kts | 196° |
| 2026-05-08 16:57 | -46.44908 | -63.12823 | 38101 ft | 430 kts | 198° |
| 2026-05-08 16:58 | -46.50578 | -63.15546 | 38104 ft | 428 kts | 196° |
| 2026-05-08 16:58 | -46.56206 | -63.18247 | 38108 ft | 425 kts | 197° |
| 2026-05-08 16:59 | -46.61819 | -63.21018 | 38085 ft | 423 kts | 197° |
| 2026-05-08 16:59 | -46.67328 | -63.23646 | 38087 ft | 415 kts | 196° |
| 2026-05-08 17:00 | -46.72810 | -63.26310 | 38132 ft | 415 kts | 196° |
| 2026-05-08 17:00 | -46.78254 | -63.28956 | 38099 ft | 409 kts | 196° |
| 2026-05-08 17:01 | -46.83674 | -63.31594 | 38098 ft | 414 kts | 197° |
| 2026-05-08 17:01 | -46.89099 | -63.34357 | 38073 ft | 417 kts | 197° |
| 2026-05-08 17:02 | -46.94606 | -63.36976 | 38141 ft | 418 kts | 196° |
| 2026-05-08 17:02 | -47.00164 | -63.39668 | 38179 ft | 421 kts | 197° |
| 2026-05-08 17:03 | -47.05670 | -63.42455 | 38148 ft | 414 kts | 196° |
| 2026-05-08 17:03 | -47.11090 | -63.45089 | 38156 ft | 410 kts | 197° |
| 2026-05-08 17:04 | -47.16523 | -63.47789 | 38140 ft | 413 kts | 196° |
| 2026-05-08 17:04 | -47.21960 | -63.50431 | 38161 ft | 406 kts | 196° |
| 2026-05-08 17:05 | -47.27260 | -63.53049 | 38144 ft | 402 kts | 197° |
| 2026-05-08 17:05 | -47.32584 | -63.55750 | 38169 ft | 407 kts | 197° |
| 2026-05-08 17:06 | -47.37955 | -63.58414 | 38150 ft | 409 kts | 197° |
| 2026-05-08 17:06 | -47.43387 | -63.61106 | 38164 ft | 415 kts | 197° |
| 2026-05-08 17:07 | -47.48880 | -63.63876 | 38187 ft | 416 kts | 197° |
| 2026-05-08 17:07 | -47.54244 | -63.66638 | 38176 ft | 401 kts | 198° |
| 2026-05-08 17:08 | -47.59567 | -63.69263 | 38225 ft | 405 kts | 197° |
| 2026-05-08 17:08 | -47.64908 | -63.71944 | 38194 ft | 404 kts | 197° |
| 2026-05-08 17:09 | -47.70247 | -63.74607 | 38223 ft | 406 kts | 197° |
| 2026-05-08 17:09 | -47.75617 | -63.77306 | 38222 ft | 408 kts | 197° |
| 2026-05-08 17:10 | -47.80955 | -63.80068 | 38206 ft | 407 kts | 197° |
| 2026-05-08 17:10 | -47.86324 | -63.82762 | 38211 ft | 408 kts | 197° |
| 2026-05-08 17:11 | -47.91711 | -63.85488 | 38211 ft | 410 kts | 197° |
| 2026-05-08 17:11 | -47.97116 | -63.88244 | 38243 ft | 410 kts | 197° |
| 2026-05-08 17:12 | -48.02502 | -63.90995 | 38222 ft | 407 kts | 197° |
| 2026-05-08 17:12 | -48.07857 | -63.93740 | 38210 ft | 407 kts | 197° |
| 2026-05-08 17:13 | -48.13196 | -63.96490 | 38233 ft | 404 kts | 197° |
| 2026-05-08 17:13 | -48.18503 | -63.99216 | 38213 ft | 402 kts | 197° |
| 2026-05-08 17:14 | -48.23825 | -64.01957 | 38225 ft | 407 kts | 197° |
| 2026-05-08 17:14 | -48.29197 | -64.04747 | 38228 ft | 410 kts | 197° |
| 2026-05-08 17:15 | -48.34543 | -64.07504 | 38266 ft | 409 kts | 197° |
| 2026-05-08 17:15 | -48.39937 | -64.10302 | 38251 ft | 411 kts | 197° |
| 2026-05-08 17:16 | -48.45336 | -64.13112 | 38263 ft | 410 kts | 197° |
| 2026-05-08 17:16 | -48.50690 | -64.15917 | 38254 ft | 405 kts | 197° |
| 2026-05-08 17:17 | -48.56002 | -64.18687 | 38269 ft | 403 kts | 197° |
| 2026-05-08 17:17 | -48.61314 | -64.21470 | 38277 ft | 404 kts | 197° |
| 2026-05-08 17:18 | -48.66638 | -64.24263 | 38270 ft | 405 kts | 197° |
| 2026-05-08 17:18 | -48.71978 | -64.27066 | 38291 ft | 407 kts | 197° |
| 2026-05-08 17:19 | -48.77346 | -64.29909 | 38277 ft | 408 kts | 197° |
| 2026-05-08 17:19 | -48.82688 | -64.32739 | 38275 ft | 404 kts | 197° |
| 2026-05-08 17:20 | -48.87992 | -64.35543 | 38282 ft | 403 kts | 197° |
| 2026-05-08 17:20 | -48.93269 | -64.38341 | 38291 ft | 401 kts | 197° |
| 2026-05-08 17:21 | -48.98539 | -64.41144 | 38303 ft | 401 kts | 197° |
| 2026-05-08 17:21 | -49.03804 | -64.43952 | 38298 ft | 401 kts | 198° |
| 2026-05-08 17:22 | -49.08998 | -64.46728 | 38309 ft | 402 kts | 197° |
| 2026-05-08 17:22 | -49.14280 | -64.49559 | 38311 ft | 403 kts | 197° |
| 2026-05-08 17:23 | -49.19578 | -64.52403 | 38313 ft | 404 kts | 197° |
| 2026-05-08 17:23 | -49.24883 | -64.55258 | 38323 ft | 405 kts | 198° |
| 2026-05-08 17:24 | -49.30197 | -64.58125 | 38322 ft | 405 kts | 198° |
| 2026-05-08 17:24 | -49.35517 | -64.61001 | 38318 ft | 406 kts | 198° |
| 2026-05-08 17:25 | -49.40843 | -64.63888 | 38331 ft | 406 kts | 198° |
| 2026-05-08 17:25 | -49.46151 | -64.66773 | 38315 ft | 403 kts | 197° |
| 2026-05-08 17:26 | -49.50123 | -64.68936 | 38341 ft | 398 kts | 197° |
| 2026-05-08 17:26 | -49.55335 | -64.71777 | 38337 ft | 396 kts | 197° |
| 2026-05-08 17:27 | -49.60523 | -64.74613 | 38334 ft | 394 kts | 197° |
| 2026-05-08 17:27 | -49.65683 | -64.77439 | 38341 ft | 393 kts | 197° |
| 2026-05-08 17:28 | -49.70844 | -64.80272 | 38352 ft | 394 kts | 197° |
| 2026-05-08 17:28 | -49.76019 | -64.83119 | 38333 ft | 396 kts | 198° |
| 2026-05-08 17:29 | -49.81213 | -64.85984 | 38347 ft | 397 kts | 198° |
| 2026-05-08 17:29 | -49.86421 | -64.88863 | 38358 ft | 398 kts | 198° |
| 2026-05-08 17:30 | -49.91644 | -64.91757 | 38361 ft | 399 kts | 198° |
| 2026-05-08 17:30 | -49.96884 | -64.94667 | 38364 ft | 400 kts | 198° |
| 2026-05-08 17:31 | -50.02090 | -64.97565 | 38365 ft | 400 kts | 198° |
| 2026-05-08 17:31 | -50.07333 | -65.00491 | 38367 ft | 400 kts | 198° |
| 2026-05-08 17:32 | -50.12554 | -65.03411 | 38364 ft | 396 kts | 198° |
| 2026-05-08 17:32 | -50.17694 | -65.06293 | 38370 ft | 390 kts | 198° |
| 2026-05-08 17:33 | -50.22789 | -65.09155 | 38379 ft | 389 kts | 198° |
| 2026-05-08 17:33 | -50.27838 | -65.11998 | 38383 ft | 388 kts | 198° |
| 2026-05-08 17:34 | -50.32918 | -65.14864 | 38392 ft | 388 kts | 198° |
| 2026-05-08 17:34 | -50.38013 | -65.17746 | 38391 ft | 390 kts | 198° |
| 2026-05-08 17:35 | -50.43095 | -65.20627 | 38370 ft | 392 kts | 199° |
| 2026-05-08 17:35 | -50.47637 | -65.23208 | 38387 ft | 393 kts | 198° |
| 2026-05-08 17:36 | -50.52781 | -65.26137 | 38399 ft | 394 kts | 199° |
| 2026-05-08 17:36 | -50.57940 | -65.29081 | 38400 ft | 395 kts | 199° |
| 2026-05-08 17:37 | -50.63107 | -65.32037 | 38405 ft | 396 kts | 199° |
| 2026-05-08 17:37 | -50.68288 | -65.35008 | 38404 ft | 396 kts | 199° |
| 2026-05-08 17:38 | -50.73468 | -65.37985 | 38410 ft | 396 kts | 199° |
| 2026-05-08 17:38 | -50.78639 | -65.40964 | 38399 ft | 395 kts | 199° |
| 2026-05-08 17:39 | -50.83790 | -65.43939 | 38407 ft | 393 kts | 199° |
| 2026-05-08 17:39 | -50.88925 | -65.46911 | 38414 ft | 392 kts | 199° |
| 2026-05-08 17:40 | -50.94010 | -65.49862 | 38412 ft | 391 kts | 199° |
| 2026-05-08 17:40 | -50.99106 | -65.52826 | 38418 ft | 389 kts | 199° |
| 2026-05-08 17:41 | -51.04186 | -65.55787 | 38417 ft | 388 kts | 199° |
| 2026-05-08 17:41 | -51.09253 | -65.58748 | 38416 ft | 388 kts | 199° |
| 2026-05-08 17:42 | -51.14308 | -65.61708 | 38425 ft | 386 kts | 199° |
| 2026-05-08 17:42 | -51.19358 | -65.64672 | 38422 ft | 386 kts | 199° |
| 2026-05-08 17:43 | -51.24398 | -65.67638 | 38430 ft | 387 kts | 199° |
| 2026-05-08 17:43 | -51.29453 | -65.70619 | 38433 ft | 387 kts | 199° |
| 2026-05-08 17:44 | -51.34511 | -65.73609 | 38433 ft | 388 kts | 199° |
| 2026-05-08 17:44 | -51.39578 | -65.76612 | 38436 ft | 389 kts | 199° |
| 2026-05-08 17:45 | -51.44656 | -65.79628 | 38440 ft | 389 kts | 199° |
| 2026-05-08 17:45 | -51.49744 | -65.82657 | 38435 ft | 391 kts | 200° |
| 2026-05-08 17:46 | -51.54844 | -65.85701 | 38444 ft | 391 kts | 200° |
| 2026-05-08 17:46 | -51.59954 | -65.88758 | 38443 ft | 392 kts | 200° |
| 2026-05-08 17:47 | -51.65040 | -65.91809 | 38446 ft | 393 kts | 200° |
| 2026-05-08 17:47 | -51.69331 | -65.94388 | 38451 ft | 393 kts | 200° |
| 2026-05-08 17:48 | -51.75293 | -65.97980 | 38463 ft | 393 kts | 200° |
| 2026-05-08 17:48 | -51.80462 | -66.01071 | 38435 ft | 393 kts | 199° |
| 2026-05-08 17:49 | -51.85583 | -66.03923 | 38442 ft | 389 kts | 198° |
| 2026-05-08 17:49 | -51.90689 | -66.06729 | 38448 ft | 386 kts | 198° |
| 2026-05-08 17:50 | -51.95757 | -66.09539 | 38458 ft | 384 kts | 199° |
| 2026-05-08 17:50 | -52.00859 | -66.12386 | 38475 ft | 392 kts | 199° |
| 2026-05-08 17:51 | -52.06059 | -66.15301 | 38483 ft | 399 kts | 199° |
| 2026-05-08 17:51 | -52.11336 | -66.18267 | 38477 ft | 403 kts | 199° |
| 2026-05-08 17:52 | -52.16644 | -66.21259 | 38430 ft | 402 kts | 199° |
| 2026-05-08 17:52 | -52.21839 | -66.24193 | 38452 ft | 389 kts | 199° |
| 2026-05-08 17:53 | -52.24395 | -66.25640 | 38466 ft | 389 kts | 199° |
| 2026-05-08 17:53 | -52.29512 | -66.28542 | 38475 ft | 390 kts | 199° |
| 2026-05-08 17:54 | -52.34635 | -66.31454 | 38494 ft | 390 kts | 199° |
| 2026-05-08 17:54 | -52.39779 | -66.34386 | 38485 ft | 392 kts | 199° |
| 2026-05-08 17:55 | -52.44910 | -66.37317 | 38476 ft | 393 kts | 199° |
| 2026-05-08 17:55 | -52.50087 | -66.40281 | 38476 ft | 395 kts | 199° |
| 2026-05-08 17:56 | -52.55268 | -66.43257 | 38471 ft | 393 kts | 199° |
| 2026-05-08 17:56 | -52.60387 | -66.46202 | 38469 ft | 387 kts | 199° |
| 2026-05-08 17:57 | -52.65447 | -66.49121 | 38490 ft | 384 kts | 200° |
| 2026-05-08 17:57 | -52.70485 | -66.52035 | 38481 ft | 383 kts | 200° |
| 2026-05-08 17:58 | -52.75511 | -66.54950 | 38484 ft | 383 kts | 200° |
| 2026-05-08 17:58 | -52.80540 | -66.57873 | 38484 ft | 384 kts | 200° |
| 2026-05-08 17:59 | -52.85589 | -66.60815 | 38484 ft | 385 kts | 200° |
| 2026-05-08 17:59 | -52.90653 | -66.63774 | 38473 ft | 387 kts | 200° |
| 2026-05-08 18:00 | -52.95724 | -66.66775 | 38487 ft | 388 kts | 201° |
| 2026-05-08 18:00 | -53.03299 | -66.71518 | 38486 ft | 388 kts | 201° |
| 2026-05-08 18:01 | -53.08355 | -66.74704 | 38495 ft | 391 kts | 201° |
| 2026-05-08 18:01 | -53.13453 | -66.77912 | 38497 ft | 397 kts | 201° |
| 2026-05-08 18:02 | -53.17800 | -66.80650 | 38366 ft | 402 kts | 201° |
| 2026-05-08 18:02 | -53.21296 | -66.82855 | 37652 ft | 406 kts | 201° |
| 2026-05-08 18:02 | -53.23920 | -66.84511 | 37114 ft | 401 kts | 201° |
| 2026-05-08 18:03 | -53.26527 | -66.86160 | 36494 ft | 400 kts | 200° |
| 2026-05-08 18:03 | -53.29111 | -66.87797 | 36112 ft | 393 kts | 200° |
| 2026-05-08 18:03 | -53.31652 | -66.89407 | 35653 ft | 388 kts | 200° |
| 2026-05-08 18:03 | -53.34159 | -66.90998 | 35233 ft | 383 kts | 200° |
| 2026-05-08 18:04 | -53.36636 | -66.92573 | 34815 ft | 378 kts | 200° |
| 2026-05-08 18:04 | -53.39079 | -66.94129 | 34388 ft | 374 kts | 200° |
| 2026-05-08 18:04 | -53.41495 | -66.95667 | 33937 ft | 369 kts | 200° |
| 2026-05-08 18:04 | -53.43877 | -66.97187 | 33523 ft | 364 kts | 200° |
| 2026-05-08 18:05 | -53.46225 | -66.98686 | 33118 ft | 359 kts | 200° |
| 2026-05-08 18:05 | -53.48542 | -67.00168 | 32709 ft | 355 kts | 200° |
| 2026-05-08 18:05 | -53.50839 | -67.01638 | 32307 ft | 351 kts | 200° |
| 2026-05-08 18:05 | -53.53106 | -67.03092 | 31909 ft | 347 kts | 200° |
| 2026-05-08 18:06 | -53.55351 | -67.04531 | 31526 ft | 344 kts | 200° |
| 2026-05-08 18:06 | -53.57553 | -67.05945 | 31157 ft | 342 kts | 200° |
| 2026-05-08 18:06 | -53.59792 | -67.07385 | 30772 ft | 339 kts | 200° |
| 2026-05-08 18:06 | -53.61988 | -67.08799 | 30355 ft | 337 kts | 200° |
| 2026-05-08 18:07 | -53.64167 | -67.10207 | 29955 ft | 332 kts | 198° |
| 2026-05-08 18:07 | -53.66309 | -67.11592 | 29598 ft | 327 kts | 198° |
| 2026-05-08 18:07 | -53.68391 | -67.12937 | 29251 ft | 322 kts | 198° |
| 2026-05-08 18:07 | -53.70473 | -67.14283 | 28880 ft | 319 kts | 198° |
| 2026-05-08 18:08 | -53.72532 | -67.15615 | 28506 ft | 316 kts | 198° |
| 2026-05-08 18:08 | -53.74575 | -67.16938 | 28132 ft | 313 kts | 198° |
| 2026-05-08 18:08 | -53.76600 | -67.18251 | 27756 ft | 311 kts | 198° |
| 2026-05-08 18:08 | -53.78607 | -67.19553 | 27395 ft | 308 kts | 198° |
| 2026-05-08 18:09 | -53.80609 | -67.20854 | 27025 ft | 307 kts | 198° |
| 2026-05-08 18:09 | -53.82597 | -67.22147 | 26662 ft | 306 kts | 198° |
| 2026-05-08 18:09 | -53.84573 | -67.23434 | 26302 ft | 304 kts | 198° |
| 2026-05-08 18:09 | -53.86557 | -67.24726 | 25952 ft | 307 kts | 198° |
| 2026-05-08 18:10 | -53.88592 | -67.26050 | 25599 ft | 320 kts | 198° |
| 2026-05-08 18:10 | -53.90697 | -67.27422 | 25218 ft | 326 kts | 198° |
| 2026-05-08 18:10 | -53.92811 | -67.28805 | 24819 ft | 324 kts | 198° |
| 2026-05-08 18:10 | -53.94905 | -67.30178 | 24439 ft | 322 kts | 198° |
| 2026-05-08 18:11 | -53.96984 | -67.31543 | 24058 ft | 320 kts | 198° |
| 2026-05-08 18:11 | -53.99057 | -67.32904 | 23624 ft | 318 kts | 198° |
| 2026-05-08 18:11 | -54.01108 | -67.34250 | 23228 ft | 315 kts | 197° |
| 2026-05-08 18:11 | -54.03137 | -67.35583 | 22866 ft | 311 kts | 198° |
| 2026-05-08 18:12 | -54.05146 | -67.36908 | 22506 ft | 308 kts | 198° |
| 2026-05-08 18:12 | -54.07143 | -67.38225 | 22138 ft | 306 kts | 198° |
| 2026-05-08 18:12 | -54.09119 | -67.39529 | 21786 ft | 304 kts | 198° |
| 2026-05-08 18:12 | -54.11083 | -67.40826 | 21428 ft | 302 kts | 198° |
| 2026-05-08 18:13 | -54.13037 | -67.42118 | 21080 ft | 300 kts | 198° |
| 2026-05-08 18:13 | -54.14978 | -67.43402 | 20735 ft | 299 kts | 198° |
| 2026-05-08 18:13 | -54.16892 | -67.44669 | 20397 ft | 300 kts | 198° |
| 2026-05-08 18:13 | -54.18840 | -67.45960 | 20073 ft | 301 kts | 199° |
| 2026-05-08 18:14 | -54.20819 | -67.47271 | 19729 ft | 310 kts | 199° |
| 2026-05-08 18:14 | -54.22851 | -67.48619 | 19372 ft | 316 kts | 199° |
| 2026-05-08 18:14 | -54.24905 | -67.49985 | 18986 ft | 316 kts | 199° |
| 2026-05-08 18:14 | -54.26945 | -67.51344 | 18602 ft | 314 kts | 199° |
| 2026-05-08 18:15 | -54.28974 | -67.52698 | 18201 ft | 312 kts | 199° |
| 2026-05-08 18:15 | -54.30995 | -67.54047 | 17821 ft | 310 kts | 199° |
| 2026-05-08 18:15 | -54.32995 | -67.55383 | 17463 ft | 308 kts | 199° |
| 2026-05-08 18:15 | -54.34314 | -67.56265 | 17233 ft | 306 kts | 199° |
| 2026-05-08 18:16 | -54.36292 | -67.57589 | 16884 ft | 304 kts | 199° |
| 2026-05-08 18:16 | -54.38256 | -67.58904 | 16519 ft | 303 kts | 200° |
| 2026-05-08 18:16 | -54.40218 | -67.60219 | 16185 ft | 301 kts | 200° |
| 2026-05-08 18:16 | -54.42162 | -67.61524 | 15851 ft | 300 kts | 200° |
| 2026-05-08 18:17 | -54.44101 | -67.62826 | 15512 ft | 299 kts | 200° |
| 2026-05-08 18:17 | -54.46033 | -67.64126 | 15186 ft | 298 kts | 200° |
| 2026-05-08 18:17 | -54.47959 | -67.65422 | 14843 ft | 297 kts | 200° |
| 2026-05-08 18:17 | -54.49902 | -67.66608 | 14499 ft | 296 kts | 191° |
| 2026-05-08 18:18 | -54.51974 | -67.66702 | 13984 ft | 302 kts | 175° |
| 2026-05-08 18:18 | -54.54094 | -67.66419 | 13443 ft | 308 kts | 175° |
| 2026-05-08 18:18 | -54.56247 | -67.66140 | 12890 ft | 312 kts | 175° |
| 2026-05-08 18:18 | -54.58421 | -67.65873 | 12371 ft | 314 kts | 176° |
| 2026-05-08 18:19 | -54.60627 | -67.65617 | 11592 ft | 324 kts | 176° |
| 2026-05-08 18:19 | -54.62909 | -67.65358 | 10913 ft | 331 kts | 176° |
| 2026-05-08 18:19 | -54.65225 | -67.65099 | 10310 ft | 335 kts | 176° |
| 2026-05-08 18:19 | -54.67549 | -67.64838 | 9814 ft | 332 kts | 176° |
| 2026-05-08 18:20 | -54.69795 | -67.64584 | 9818 ft | 316 kts | 176° |
| 2026-05-08 18:20 | -54.71943 | -67.64341 | 9712 ft | 304 kts | 176° |
| 2026-05-08 18:20 | -54.74016 | -67.64109 | 9631 ft | 293 kts | 177° |
| 2026-05-08 18:20 | -54.76011 | -67.63892 | 9549 ft | 282 kts | 176° |
| 2026-05-08 18:21 | -54.77937 | -67.63696 | 9460 ft | 272 kts | 180° |
| 2026-05-08 18:21 | -54.79726 | -67.64370 | 9361 ft | 260 kts | 210° |
| 2026-05-08 18:21 | -54.81149 | -67.66213 | 9211 ft | 252 kts | 228° |
| 2026-05-08 18:21 | -54.81914 | -67.68836 | 9041 ft | 244 kts | 263° |
| 2026-05-08 18:22 | -54.82018 | -67.71666 | 8983 ft | 233 kts | 267° |
| 2026-05-08 18:22 | -54.82111 | -67.74433 | 8832 ft | 228 kts | 267° |
| 2026-05-08 18:22 | -54.82213 | -67.77161 | 8623 ft | 225 kts | 267° |
| 2026-05-08 18:22 | -54.82322 | -67.79876 | 8318 ft | 227 kts | 266° |
| 2026-05-08 18:23 | -54.82432 | -67.82598 | 8083 ft | 225 kts | 267° |
| 2026-05-08 18:23 | -54.82542 | -67.85287 | 7881 ft | 222 kts | 266° |
| 2026-05-08 18:23 | -54.82653 | -67.87960 | 7606 ft | 223 kts | 266° |
| 2026-05-08 18:23 | -54.82764 | -67.90606 | 7496 ft | 213 kts | 267° |
| 2026-05-08 18:24 | -54.82867 | -67.93087 | 7349 ft | 202 kts | 267° |
| 2026-05-08 18:24 | -54.82968 | -67.95503 | 6841 ft | 205 kts | 267° |
| 2026-05-08 18:24 | -54.83178 | -67.97970 | 6367 ft | 204 kts | 249° |
| 2026-05-08 18:24 | -54.84040 | -67.99754 | 6210 ft | 190 kts | 210° |
| 2026-05-08 18:25 | -54.85283 | -68.00154 | 5987 ft | 183 kts | 170° |
| 2026-05-08 18:25 | -54.86360 | -67.99077 | 5659 ft | 182 kts | 127° |
| 2026-05-08 18:25 | -54.86753 | -67.97047 | 5362 ft | 181 kts | 84° |
| 2026-05-08 18:25 | -54.86254 | -67.95081 | 5190 ft | 187 kts | 40° |
| 2026-05-08 18:26 | -54.85064 | -67.94148 | 5189 ft | 193 kts | 359° |
| 2026-05-08 18:26 | -54.83859 | -67.94961 | 5120 ft | 191 kts | 312° |
| 2026-05-08 18:26 | -54.83387 | -67.97043 | 5121 ft | 190 kts | 272° |
| 2026-05-08 18:26 | -54.83353 | -67.99340 | 5084 ft | 191 kts | 273° |
| 2026-05-08 18:27 | -54.83326 | -68.01600 | 5064 ft | 183 kts | 270° |
| 2026-05-08 18:27 | -54.83353 | -68.03037 | 4966 ft | 177 kts | 269° |
| 2026-05-08 18:27 | -54.83444 | -68.05870 | 4457 ft | 176 kts | 268° |
| 2026-05-08 18:27 | -54.83520 | -68.07960 | 4071 ft | 172 kts | 268° |
| 2026-05-08 18:28 | -54.83596 | -68.09986 | 3591 ft | 165 kts | 269° |
| 2026-05-08 18:28 | -54.83667 | -68.11948 | 3032 ft | 162 kts | 268° |
| 2026-05-08 18:28 | -54.83740 | -68.13902 | 2368 ft | 163 kts | 269° |
| 2026-05-08 18:28 | -54.83812 | -68.15879 | 1709 ft | 165 kts | 268° |
| 2026-05-08 18:29 | -54.83886 | -68.17837 | 1371 ft | 155 kts | 268° |
| 2026-05-08 18:29 | -54.83952 | -68.19625 | 1149 ft | 147 kts | 269° |
| 2026-05-08 18:29 | -54.84016 | -68.21385 | 945 ft | 147 kts | 269° |
| 2026-05-08 18:29 | -54.84084 | -68.23163 | 750 ft | 149 kts | 268° |
| 2026-05-08 18:30 | -54.84157 | -68.24931 | 491 ft | 144 kts | 268° |
| 2026-05-08 18:30 | -54.84220 | -68.26649 | 237 ft | 142 kts | 268° |
| 2026-05-08 18:30 | -54.84288 | -68.28354 | 94 ft | 139 kts | 268° |
| 2026-05-08 18:30 | -54.84304 | -68.29879 | 83 ft | 108 kts | 273° |
| 2026-05-08 18:31 | -54.84255 | -68.30924 | 83 ft | 66 kts | 276° |
| 2026-05-08 18:31 | -54.84217 | -68.31457 | 82 ft | 24 kts | 278° |